Time;durP1;ratioP1;P1;durP2;ratioP2;P2;SDS_P1;SDS_P2;PMS_P1;PMS_P2;Temp;Humidity;BMP_temperature;BMP_pressure;BME280_temperature;BME280_humidity;BME280_pressure;Samples;Min_cycle;Max_cycle;Signal;HPM_P1;HPM_P2
2021/10/19 00:01:52;;;;;;;10.40;8.00;;;4.30;99.90;3.30;97834.00;;;;5084164;28;20445;-69
2021/10/19 00:04:42;;;;;;;8.23;6.10;;;4.10;99.90;3.30;97844.00;;;;5084410;28;20425;-68
2021/10/19 00:07:31;;;;;;;7.93;7.13;;;4.10;99.90;3.50;97831.00;;;;5084347;28;20440;-68
2021/10/19 00:10:21;;;;;;;8.60;7.43;;;4.10;99.90;3.50;97832.00;;;;5085099;28;20887;-69
2021/10/19 00:13:10;;;;;;;10.87;7.73;;;4.10;99.90;3.60;97849.00;;;;5084869;28;20426;-68
2021/10/19 00:15:59;;;;;;;10.57;7.57;;;4.10;99.90;3.60;97842.00;;;;5083272;28;20469;-69
2021/10/19 00:18:48;;;;;;;9.40;7.80;;;4.10;99.90;3.60;97840.00;;;;5084712;28;20459;-67
2021/10/19 00:21:38;;;;;;;8.93;7.33;;;4.10;99.90;3.50;97839.00;;;;5084764;28;20460;-68
2021/10/19 00:24:27;;;;;;;10.27;6.90;;;4.10;99.90;3.60;97837.00;;;;5088571;28;20425;-68
2021/10/19 00:27:15;;;;;;;8.60;7.63;;;4.10;99.90;3.70;97839.00;;;;5089626;28;20434;-68
2021/10/19 00:30:10;;;;;;;7.97;7.07;;;4.10;99.90;3.50;97842.00;;;;5084825;28;20432;-67
2021/10/19 00:32:58;;;;;;;9.80;7.47;;;4.10;99.90;3.20;97824.00;;;;5084748;28;20417;-67
2021/10/19 00:35:47;;;;;;;7.90;6.77;;;4.10;99.90;3.30;97832.00;;;;5084404;28;20430;-68
2021/10/19 00:38:37;;;;;;;8.40;7.50;;;4.00;99.90;3.30;97840.00;;;;5084930;28;20434;-68
2021/10/19 00:41:26;;;;;;;8.27;6.03;;;3.90;99.90;3.20;97838.00;;;;5082892;28;20786;-68
2021/10/19 00:44:15;;;;;;;11.73;8.03;;;3.90;99.90;3.20;97847.00;;;;5084789;28;20935;-68
2021/10/19 00:47:05;;;;;;;8.53;7.13;;;3.90;99.90;3.00;97842.00;;;;5082409;28;20429;-69
2021/10/19 00:49:53;;;;;;;7.53;6.67;;;3.80;99.90;3.10;97835.00;;;;5083728;28;20422;-69
2021/10/19 00:52:42;;;;;;;7.63;6.43;;;3.80;99.90;3.20;97832.00;;;;5083709;28;20446;-67
2021/10/19 00:55:34;;;;;;;9.80;7.83;;;3.80;99.90;3.20;97834.00;;;;5083630;28;20433;-68
2021/10/19 00:58:23;;;;;;;10.63;7.20;;;3.80;99.90;3.30;97840.00;;;;5082965;28;20429;-68
2021/10/19 01:01:12;;;;;;;9.30;7.33;;;3.80;99.90;3.30;97833.00;;;;5082904;28;20457;-68
2021/10/19 01:04:01;;;;;;;10.90;7.37;;;3.80;99.90;3.20;97842.00;;;;5083416;28;20425;-67
2021/10/19 01:06:50;;;;;;;9.17;6.80;;;3.80;99.90;3.10;97833.00;;;;5083314;28;20429;-67
2021/10/19 01:09:39;;;;;;;8.37;6.93;;;3.80;99.90;3.10;97829.00;;;;5083029;28;20796;-68
2021/10/19 01:12:29;;;;;;;8.23;7.23;;;3.70;99.90;3.00;97834.00;;;;5083334;28;20830;-67
2021/10/19 01:15:19;;;;;;;12.80;7.60;;;3.70;99.90;2.90;97842.00;;;;5083940;28;20791;-69
2021/10/19 01:18:08;;;;;;;16.50;7.23;;;3.60;99.90;3.20;97834.00;;;;5083402;28;20477;-68
2021/10/19 01:20:58;;;;;;;9.67;7.67;;;3.70;99.90;3.30;97832.00;;;;5063061;28;20991;-68
2021/10/19 01:23:47;;;;;;;7.30;6.60;;;3.80;99.90;3.40;97831.00;;;;5064622;28;20427;-67
2021/10/19 01:26:36;;;;;;;9.40;7.10;;;3.80;99.90;3.50;97828.00;;;;5082281;28;20494;-68
2021/10/19 01:29:25;;;;;;;11.97;7.80;;;3.90;99.90;3.30;97834.00;;;;5084035;28;20437;-68
2021/10/19 01:32:14;;;;;;;7.40;6.10;;;3.90;99.90;2.90;97825.00;;;;5085018;28;20971;-68
2021/10/19 01:35:04;;;;;;;9.67;7.13;;;3.80;99.90;2.90;97813.00;;;;5089868;28;20429;-68
2021/10/19 01:37:54;;;;;;;10.53;6.80;;;3.70;99.90;2.80;97807.00;;;;5063292;28;20455;-68
2021/10/19 01:40:43;;;;;;;7.50;6.67;;;3.60;99.90;2.60;97817.00;;;;5062786;28;20949;-69
2021/10/19 01:43:32;;;;;;;8.20;5.97;;;3.50;99.90;2.60;97800.00;;;;5063401;28;20951;-68
2021/10/19 01:46:22;;;;;;;10.37;7.57;;;3.50;99.90;2.50;97796.00;;;;5063378;28;20446;-68
2021/10/19 01:49:11;;;;;;;9.87;7.57;;;3.40;99.90;2.60;97787.00;;;;5063691;28;20418;-68
2021/10/19 01:52:00;;;;;;;8.87;7.47;;;3.40;99.90;2.70;97792.00;;;;5063247;28;20449;-69
2021/10/19 01:54:50;;;;;;;8.73;7.20;;;3.40;99.90;2.70;97787.00;;;;5063393;28;20426;-68
2021/10/19 01:57:39;;;;;;;8.67;7.03;;;3.40;99.90;2.70;97785.00;;;;5062927;28;20643;-68
2021/10/19 02:00:28;;;;;;;11.27;7.57;;;3.40;99.90;2.70;97800.00;;;;5083214;28;20936;-68
2021/10/19 02:03:17;;;;;;;8.97;7.43;;;3.40;99.90;2.80;97786.00;;;;5085077;28;20434;-68
2021/10/19 02:06:07;;;;;;;8.17;6.50;;;3.40;99.90;2.60;97786.00;;;;5086889;28;20432;-67
2021/10/19 02:08:56;;;;;;;12.80;7.70;;;3.40;99.90;2.80;97774.00;;;;5088763;28;20888;-69
2021/10/19 02:11:46;;;;;;;10.70;8.47;;;3.40;99.90;3.00;97781.00;;;;5067174;28;20438;-69
2021/10/19 02:14:35;;;;;;;8.77;6.83;;;3.40;99.90;3.00;97776.00;;;;5067790;28;20796;-68
2021/10/19 02:17:24;;;;;;;13.43;7.73;;;3.50;99.90;3.20;97778.00;;;;5086931;28;20882;-68
2021/10/19 02:20:13;;;;;;;8.13;7.30;;;3.60;99.90;3.20;97776.00;;;;5086531;28;20440;-69
2021/10/19 02:23:02;;;;;;;9.70;7.50;;;3.70;99.90;2.70;97777.00;;;;5086099;28;20414;-68
2021/10/19 02:25:51;;;;;;;9.63;6.97;;;3.60;99.90;2.60;97757.00;;;;5096880;28;20453;-66
2021/10/19 02:28:41;;;;;;;11.57;8.80;;;3.60;99.90;2.60;97782.00;;;;5066208;28;20445;-69
2021/10/19 02:31:30;;;;;;;8.13;6.30;;;3.50;99.90;2.50;97778.00;;;;5066499;28;20450;-69
2021/10/19 02:34:21;;;;;;;8.30;7.07;;;3.40;99.90;2.60;97781.00;;;;5066103;28;20427;-68
2021/10/19 02:37:10;;;;;;;7.30;6.17;;;3.30;99.90;2.90;97788.00;;;;5065340;28;20462;-67
2021/10/19 02:39:59;;;;;;;11.47;7.57;;;3.40;99.90;3.10;97788.00;;;;5066647;28;20427;-69
2021/10/19 02:42:49;;;;;;;11.07;8.50;;;3.50;99.90;3.10;97786.00;;;;5066792;28;20624;-68
2021/10/19 02:45:39;;;;;;;13.73;7.07;;;3.60;99.90;3.00;97777.00;;;;5066904;28;20433;-68
2021/10/19 02:48:28;;;;;;;7.67;6.80;;;3.60;99.90;3.10;97770.00;;;;5067136;28;20431;-68
2021/10/19 02:51:17;;;;;;;9.60;7.67;;;3.70;99.90;3.00;97772.00;;;;5065090;28;20476;-67
2021/10/19 02:54:07;;;;;;;7.10;6.40;;;3.70;99.90;3.10;97774.00;;;;5064516;28;20430;-68
2021/10/19 02:56:56;;;;;;;11.50;7.80;;;3.80;99.90;3.10;97778.00;;;;5079809;28;20661;-69
2021/10/19 02:59:44;;;;;;;7.70;6.77;;;3.80;99.90;2.60;97773.00;;;;5085235;28;20418;-67
2021/10/19 03:02:35;;;;;;;8.77;7.83;;;3.60;99.90;2.90;97783.00;;;;5086920;28;20959;-68
2021/10/19 03:05:24;;;;;;;12.13;8.77;;;3.60;99.90;3.00;97775.00;;;;5085566;28;20969;-69
2021/10/19 03:08:12;;;;;;;9.27;7.40;;;3.60;99.90;3.00;97766.00;;;;5098329;28;20425;-67
2021/10/19 03:11:02;;;;;;;10.17;7.17;;;3.60;99.90;3.00;97766.00;;;;5085107;28;20449;-67
2021/10/19 03:13:53;;;;;;;11.10;6.87;;;3.70;99.90;2.90;97761.00;;;;5073379;28;20444;-68
2021/10/19 03:16:42;;;;;;;8.50;7.00;;;3.70;99.90;3.10;97760.00;;;;5083830;28;20437;-69
2021/10/19 03:19:32;;;;;;;11.83;7.77;;;3.70;99.90;3.00;97770.00;;;;5085108;28;20460;-68
2021/10/19 03:22:21;;;;;;;9.90;6.97;;;3.70;99.90;2.80;97759.00;;;;5085520;28;21000;-68
2021/10/19 03:25:11;;;;;;;9.27;8.17;;;3.60;99.90;3.10;97769.00;;;;5094948;28;20773;-69
2021/10/19 03:28:00;;;;;;;9.70;8.67;;;3.70;99.90;3.20;97773.00;;;;5085130;28;20430;-69
2021/10/19 03:30:48;;;;;;;9.77;8.13;;;3.70;99.90;3.30;97769.00;;;;5085232;28;20453;-69
2021/10/19 03:33:38;;;;;;;8.97;7.17;;;3.80;99.90;3.30;97773.00;;;;5084752;28;20432;-68
2021/10/19 03:36:29;;;;;;;10.77;7.70;;;3.80;99.90;3.10;97760.00;;;;5083836;28;20448;-68
2021/10/19 03:39:18;;;;;;;7.90;7.10;;;2.80;99.90;3.20;97757.00;;;;5084238;28;20458;-68
2021/10/19 03:42:06;;;;;;;9.00;8.07;;;3.80;99.90;3.10;97769.00;;;;5085423;28;20895;-68
2021/10/19 03:44:55;;;;;;;9.27;7.20;;;3.80;99.90;2.90;97753.00;;;;5085874;28;20882;-66
2021/10/19 03:47:45;;;;;;;11.47;7.63;;;3.70;99.90;3.10;97760.00;;;;5098016;28;20939;-67
2021/10/19 03:50:33;;;;;;;13.87;9.30;;;3.70;99.90;3.40;97767.00;;;;5097382;28;20429;-66
2021/10/19 03:53:24;;;;;;;9.87;8.27;;;3.80;99.90;3.20;97758.00;;;;5086563;28;20430;-67
2021/10/19 03:56:13;;;;;;;12.40;7.13;;;3.80;99.90;2.70;97750.00;;;;5084545;28;20449;-68
2021/10/19 03:59:02;;;;;;;9.37;7.17;;;3.70;99.90;2.40;97759.00;;;;5085459;28;20575;-68
2021/10/19 04:01:51;;;;;;;6.57;5.93;;;3.50;99.90;2.50;97771.00;;;;5084003;28;20442;-69
2021/10/19 04:04:40;;;;;;;9.17;7.40;;;3.40;99.90;2.60;97770.00;;;;5098391;28;21287;-70
2021/10/19 04:07:29;;;;;;;10.60;7.03;;;3.40;99.90;2.60;97775.00;;;;5092717;28;20428;-66
2021/10/19 04:10:21;;;;;;;14.83;8.47;;;3.40;99.90;2.80;97774.00;;;;5098469;28;20435;-67
2021/10/19 04:13:10;;;;;;;8.93;8.03;;;3.40;99.90;2.80;97760.00;;;;5097488;28;20429;-67
2021/10/19 04:15:59;;;;;;;13.03;7.87;;;3.50;99.90;2.40;97771.00;;;;5083083;28;20432;-67
2021/10/19 04:18:48;;;;;;;13.10;8.30;;;3.40;99.90;2.40;97776.00;;;;5085663;28;20492;-68
2021/10/19 04:21:37;;;;;;;11.03;8.03;;;3.30;99.90;2.40;97774.00;;;;5084118;28;20441;-68
2021/10/19 04:24:26;;;;;;;7.93;6.17;;;3.30;99.90;2.50;97758.00;;;;5088624;28;20424;-69
2021/10/19 04:27:16;;;;;;;10.07;8.13;;;3.30;99.90;2.80;97747.00;;;;5090049;28;20430;-70
2021/10/19 04:30:06;;;;;;;12.63;9.67;;;3.30;99.90;2.80;97755.00;;;;5091627;28;20430;-67
2021/10/19 04:32:58;;;;;;;13.23;8.17;;;3.40;99.90;2.80;97757.00;;;;5085702;28;20441;-68
2021/10/19 04:35:49;;;;;;;10.00;8.00;;;3.50;99.90;3.00;97762.00;;;;5077578;28;20973;-68
2021/10/19 04:38:38;;;;;;;15.03;8.17;;;3.50;99.90;3.10;97767.00;;;;5073139;28;21013;-69
2021/10/19 04:41:28;;;;;;;11.40;8.03;;;3.50;99.90;3.10;97750.00;;;;5063986;28;20456;-68
2021/10/19 04:44:18;;;;;;;13.83;9.27;;;3.60;99.90;2.80;97747.00;;;;5065609;28;20423;-66
2021/10/19 04:47:08;;;;;;;12.93;9.17;;;3.60;99.90;2.70;97755.00;;;;5084563;28;20430;-69
2021/10/19 04:49:58;;;;;;;7.87;7.07;;;3.50;99.90;2.60;97752.00;;;;5095233;28;20413;-69
2021/10/19 04:52:47;;;;;;;9.53;7.90;;;3.40;99.90;2.70;97755.00;;;;5100667;28;20448;-68
2021/10/19 04:55:36;;;;;;;8.90;7.00;;;3.40;99.90;2.40;97768.00;;;;5082786;28;20417;-69
2021/10/19 04:58:25;;;;;;;7.73;6.30;;;3.30;99.90;2.10;97746.00;;;;5083940;28;20461;-70
2021/10/19 05:01:15;;;;;;;11.30;7.67;;;3.20;99.90;2.30;97758.00;;;;5085685;28;20468;-69
2021/10/19 05:04:04;;;;;;;16.20;7.73;;;3.10;99.90;2.50;97754.00;;;;5103820;28;20819;-68
2021/10/19 05:06:53;;;;;;;10.50;7.27;;;3.10;99.90;2.40;97756.00;;;;5092137;28;20437;-69
2021/10/19 05:09:41;;;;;;;10.80;8.73;;;3.10;99.90;2.20;97747.00;;;;5099546;28;20425;-70
2021/10/19 05:12:30;;;;;;;10.50;7.57;;;3.10;99.90;2.00;97752.00;;;;5088547;28;20469;-69
2021/10/19 05:15:21;;;;;;;10.57;8.60;;;3.00;99.90;2.20;97760.00;;;;5084272;28;20425;-69
2021/10/19 05:18:11;;;;;;;9.13;7.90;;;2.90;99.90;2.30;97755.00;;;;5090189;28;20427;-69
2021/10/19 05:21:00;;;;;;;12.13;8.63;;;2.90;99.90;2.40;97751.00;;;;5094303;28;20441;-69
2021/10/19 05:23:50;;;;;;;12.57;9.00;;;3.00;99.90;2.60;97756.00;;;;5096720;28;20413;-69
2021/10/19 05:26:39;;;;;;;14.07;8.83;;;3.00;99.90;2.80;97755.00;;;;5085403;28;20434;-70
2021/10/19 05:29:29;;;;;;;15.83;9.80;;;3.20;99.90;2.90;97761.00;;;;5071359;28;20423;-70
2021/10/19 05:32:18;;;;;;;11.80;8.93;;;3.30;99.90;2.90;97762.00;;;;5061914;28;20455;-70
2021/10/19 05:35:09;;;;;;;13.30;7.67;;;3.40;99.90;2.60;97748.00;;;;5072997;28;20421;-69
2021/10/19 05:37:58;;;;;;;10.70;8.67;;;3.30;99.90;3.00;97760.00;;;;5086538;28;20441;-68
2021/10/19 05:40:47;;;;;;;18.23;11.13;;;3.40;99.90;3.00;97768.00;;;;5072998;28;20476;-68
2021/10/19 05:43:36;;;;;;;8.33;7.17;;;3.40;99.90;2.60;97751.00;;;;5094524;28;20433;-69
2021/10/19 05:46:25;;;;;;;11.47;8.50;;;3.40;99.90;2.30;97758.00;;;;5083529;28;20416;-68
2021/10/19 05:49:14;;;;;;;16.80;9.20;;;3.20;99.90;2.40;97741.00;;;;5078097;28;20796;-69
2021/10/19 05:52:04;;;;;;;18.73;10.80;;;3.20;99.90;2.70;97750.00;;;;5068383;28;20458;-68
2021/10/19 05:54:53;;;;;;;11.03;9.40;;;3.30;99.90;2.70;97762.00;;;;5079284;28;20457;-67
2021/10/19 05:57:42;;;;;;;12.90;10.23;;;3.30;99.90;2.60;97761.00;;;;5075928;28;20516;-69
2021/10/19 06:00:32;;;;;;;12.83;9.20;;;3.30;99.90;2.50;97771.00;;;;5077309;28;20460;-70
2021/10/19 06:03:21;;;;;;;11.17;8.47;;;3.30;99.90;2.70;97773.00;;;;5084076;28;20418;-68
2021/10/19 06:06:13;;;;;;;13.10;9.70;;;3.30;99.90;3.10;97766.00;;;;5078518;28;20944;-70
2021/10/19 06:09:04;;;;;;;11.27;8.37;;;3.50;99.90;3.00;97772.00;;;;5073718;28;20436;-67
2021/10/19 06:11:53;;;;;;;10.20;8.03;;;3.50;99.90;3.00;97776.00;;;;5085147;28;20449;-68
2021/10/19 06:14:42;;;;;;;11.67;9.30;;;3.60;99.90;2.90;97778.00;;;;5076318;28;20430;-69
2021/10/19 06:17:31;;;;;;;11.07;8.17;;;3.60;99.90;2.90;97776.00;;;;5080271;28;20943;-69
2021/10/19 06:20:20;;;;;;;13.50;9.80;;;3.00;99.90;3.20;97766.00;;;;5084335;28;20448;-69
2021/10/19 06:23:09;;;;;;;14.37;10.50;;;3.70;99.90;3.20;97770.00;;;;5077261;28;20422;-69
2021/10/19 06:25:59;;;;;;;12.73;9.73;;;3.90;99.90;3.20;97771.00;;;;5088505;28;20461;-68
2021/10/19 06:28:48;;;;;;;12.10;9.83;;;3.90;99.90;3.60;97747.00;;;;5067637;28;20810;-69
2021/10/19 06:31:37;;;;;;;15.43;10.70;;;4.00;99.90;3.80;97760.00;;;;5074315;28;20437;-70
2021/10/19 06:34:26;;;;;;;11.20;9.77;;;4.20;99.90;3.80;97765.00;;;;5071751;28;20422;-70
2021/10/19 06:37:15;;;;;;;14.93;10.00;;;4.30;99.90;3.50;97753.00;;;;5072662;28;20418;-68
2021/10/19 06:40:06;;;;;;;11.57;10.23;;;4.20;99.90;3.80;97762.00;;;;5083800;28;20468;-69
2021/10/19 06:42:56;;;;;;;10.50;8.50;;;4.30;99.90;3.60;97755.00;;;;5080328;28;20434;-71
2021/10/19 06:45:45;;;;;;;13.97;10.10;;;4.40;99.90;4.00;97756.00;;;;5074040;28;20451;-69
2021/10/19 06:48:34;;;;;;;11.23;8.83;;;4.40;99.90;4.00;97780.00;;;;5077866;28;20435;-70
2021/10/19 06:51:23;;;;;;;11.70;8.93;;;4.50;99.90;4.10;97773.00;;;;5067282;28;20457;-69
2021/10/19 06:54:12;;;;;;;12.50;9.67;;;4.50;99.90;4.30;97791.00;;;;5076980;28;20424;-70
2021/10/19 06:57:01;;;;;;;17.00;10.20;;;4.60;99.90;4.40;97794.00;;;;5079125;28;20944;-70
2021/10/19 06:59:51;;;;;;;15.23;11.10;;;4.70;99.90;4.60;97796.00;;;;5082419;28;20457;-69
2021/10/19 07:02:40;;;;;;;13.43;10.33;;;4.80;99.90;4.80;97795.00;;;;5084035;28;20445;-70
2021/10/19 07:05:29;;;;;;;17.43;9.90;;;4.90;99.90;4.70;97783.00;;;;5075677;28;20445;-71
2021/10/19 07:08:17;;;;;;;16.03;10.40;;;4.50;99.90;4.80;97792.00;;;;5081418;28;20195;-69
2021/10/19 07:11:07;;;;;;;16.33;10.90;;;5.20;99.90;4.90;97780.00;;;;5083217;28;20220;-69
2021/10/19 07:13:57;;;;;;;12.93;10.97;;;5.30;99.90;4.90;97780.00;;;;5076570;28;20426;-69
2021/10/19 07:16:47;;;;;;;13.60;10.13;;;5.30;99.90;5.00;97777.00;;;;5097363;28;20677;-69
2021/10/19 07:19:37;;;;;;;12.13;8.80;;;5.40;99.90;5.00;97780.00;;;;5092136;28;20693;-69
2021/10/19 07:22:29;;;;;;;12.50;8.90;;;5.50;99.90;5.10;97753.00;;;;5072153;28;20219;-70
2021/10/19 07:25:17;;;;;;;16.10;10.13;;;5.50;99.90;5.30;97769.00;;;;5091318;28;20206;-70
2021/10/19 07:28:06;;;;;;;12.10;10.50;;;5.60;99.90;5.60;97773.00;;;;5084140;28;20207;-69
2021/10/19 07:30:55;;;;;;;9.70;7.50;;;5.80;99.90;5.80;97777.00;;;;5095843;28;20223;-69
2021/10/19 07:33:45;;;;;;;11.13;7.70;;;6.00;99.90;6.00;97761.00;;;;5094167;28;20214;-70
2021/10/19 07:36:34;;;;;;;15.37;9.47;;;6.20;99.90;6.50;97774.00;;;;5099289;28;20207;-70
2021/10/19 07:39:23;;;;;;;13.13;9.67;;;6.40;99.90;6.70;97762.00;;;;5088986;28;20206;-68
2021/10/19 07:42:12;;;;;;;12.37;9.97;;;6.70;99.90;7.00;97771.00;;;;5094500;28;20226;-70
2021/10/19 07:45:01;;;;;;;19.20;11.57;;;6.90;99.90;7.40;97776.00;;;;5087711;28;20214;-70
2021/10/19 07:47:51;;;;;;;14.77;10.27;;;7.10;99.90;7.60;97776.00;;;;5086354;28;20195;-70
2021/10/19 07:50:46;;;;;;;13.07;10.43;;;7.40;99.90;7.80;97786.00;;;;5095579;28;20208;-70
2021/10/19 07:53:35;;;;;;;13.07;10.53;;;7.60;99.90;8.10;97788.00;;;;5092091;28;20593;-70
2021/10/19 07:56:24;;;;;;;12.60;10.00;;;7.80;99.90;8.20;97797.00;;;;5079565;28;20200;-69
2021/10/19 07:59:13;;;;;;;11.23;9.57;;;8.00;99.90;8.40;97791.00;;;;5101173;28;20607;-68
2021/10/19 08:02:01;;;;;;;13.53;9.67;;;8.20;99.90;8.70;97782.00;;;;5095134;28;20223;-70
2021/10/19 08:04:50;;;;;;;12.57;9.57;;;8.40;99.90;8.80;97781.00;;;;5086044;28;20234;-69
2021/10/19 08:07:41;;;;;;;11.97;9.70;;;8.60;99.90;8.90;97780.00;;;;5093970;28;20199;-68
2021/10/19 08:10:30;;;;;;;13.70;9.37;;;8.70;99.90;8.90;97785.00;;;;5083862;28;20206;-71
2021/10/19 08:13:19;;;;;;;13.73;10.43;;;8.90;99.90;8.90;97778.00;;;;5085028;28;20202;-68
2021/10/19 08:16:08;;;;;;;14.50;9.17;;;8.90;99.90;9.00;97769.00;;;;5071785;28;20233;-71
2021/10/19 08:18:57;;;;;;;10.37;7.63;;;9.10;99.90;9.00;97770.00;;;;5093643;28;20199;-71
2021/10/19 08:21:48;;;;;;;12.20;8.27;;;9.20;99.90;9.20;97767.00;;;;5066495;28;20236;-70
2021/10/19 08:24:38;;;;;;;8.90;8.00;;;9.30;99.90;9.40;97768.00;;;;5070296;28;20200;-72
2021/10/19 08:27:27;;;;;;;13.77;8.20;;;9.50;99.90;9.60;97775.00;;;;5082312;28;20206;-69
2021/10/19 08:30:19;;;;;;;12.10;9.13;;;9.60;99.90;9.70;97776.00;;;;5093356;28;20206;-69
2021/10/19 08:33:08;;;;;;;13.60;7.90;;;9.70;99.90;10.10;97767.00;;;;5079121;28;20207;-68
2021/10/19 08:35:57;;;;;;;14.53;8.07;;;9.90;99.90;10.70;97772.00;;;;5064582;28;20211;-71
2021/10/19 08:38:47;;;;;;;11.00;6.93;;;10.20;99.90;10.80;97780.00;;;;5086357;28;20716;-70
2021/10/19 08:41:38;;;;;;;9.60;7.40;;;10.50;99.90;11.00;97779.00;;;;5075029;28;20552;-71
2021/10/19 08:44:28;;;;;;;14.83;6.70;;;10.70;99.90;11.50;97777.00;;;;5077462;28;20207;-71
2021/10/19 08:47:17;;;;;;;9.30;6.17;;;10.90;99.90;11.70;97780.00;;;;5078813;28;20669;-71
2021/10/19 08:50:07;;;;;;;8.00;6.43;;;11.20;99.90;11.60;97783.00;;;;5081369;28;20206;-70
2021/10/19 08:52:56;;;;;;;10.17;6.63;;;11.40;99.90;11.60;97778.00;;;;5070242;28;20203;-72
2021/10/19 08:55:45;;;;;;;8.00;6.47;;;11.50;99.90;11.80;97776.00;;;;5081174;28;20199;-70
2021/10/19 08:58:38;;;;;;;8.00;6.53;;;11.60;99.90;12.10;97770.00;;;;5077110;28;20580;-71
2021/10/19 09:01:34;;;;;;;6.20;5.57;;;11.70;99.90;12.40;97773.00;;;;5069539;28;20306;-70
2021/10/19 09:04:29;;;;;;;13.03;7.07;;;11.90;99.90;12.80;97770.00;;;;5067411;28;20635;-70
2021/10/19 09:07:28;;;;;;;6.23;5.50;;;12.20;99.90;13.10;97781.00;;;;5070567;28;20674;-71
2021/10/19 09:10:18;;;;;;;5.50;5.00;;;12.50;99.90;13.30;97766.00;;;;5068255;28;20200;-70
2021/10/19 09:13:09;;;;;;;9.67;6.97;;;12.70;99.90;13.40;97767.00;;;;5073168;28;20187;-70
2021/10/19 09:16:04;;;;;;;9.83;5.83;;;12.90;99.90;13.50;97775.00;;;;5078935;28;20207;-72
2021/10/19 09:19:01;;;;;;;7.67;6.37;;;13.10;99.90;13.60;97775.00;;;;5077636;28;20199;-70
2021/10/19 09:21:53;;;;;;;10.43;5.80;;;13.20;99.90;13.70;97779.00;;;;5087342;28;20230;-72
2021/10/19 09:24:44;;;;;;;8.43;6.83;;;13.40;99.90;14.00;97770.00;;;;5090269;28;20238;-71
2021/10/19 09:27:33;;;;;;;6.57;5.50;;;13.50;99.90;14.20;97771.00;;;;5072288;28;20211;-71
2021/10/19 09:30:36;;;;;;;5.80;5.07;;;13.70;99.90;14.40;97760.00;;;;5088442;28;20190;-70
2021/10/19 09:33:27;;;;;;;6.83;5.80;;;13.90;99.90;14.50;97758.00;;;;5077085;28;21099;-71
2021/10/19 09:36:16;;;;;;;10.03;6.03;;;14.00;99.90;14.50;97751.00;;;;5073532;28;20204;-71
2021/10/19 09:39:04;;;;;;;7.23;5.83;;;14.20;99.90;14.80;97758.00;;;;5073484;28;20211;-71
2021/10/19 09:41:53;;;;;;;5.37;4.87;;;14.30;99.90;15.20;97750.00;;;;5080335;28;20228;-71
2021/10/19 09:44:52;;;;;;;7.17;5.70;;;14.50;99.90;15.40;97749.00;;;;5075231;28;20601;-71
2021/10/19 09:47:42;;;;;;;8.63;5.50;;;14.70;99.90;15.40;97768.00;;;;5087282;28;20570;-71
2021/10/19 09:50:32;;;;;;;6.23;4.70;;;14.80;99.90;15.10;97769.00;;;;5076822;28;20204;-71
2021/10/19 09:53:24;;;;;;;10.70;5.30;;;14.90;99.90;15.30;97756.00;;;;5094903;28;20190;-71
2021/10/19 09:56:13;;;;;;;7.03;4.63;;;15.00;99.90;15.60;97748.00;;;;5095871;28;20203;-70
2021/10/19 09:59:03;;;;;;;6.07;4.00;;;15.10;99.90;15.90;97738.00;;;;5082368;28;20215;-70
2021/10/19 10:01:52;;;;;;;6.13;5.30;;;15.30;99.90;16.10;97748.00;;;;5070602;28;20655;-72
2021/10/19 10:04:43;;;;;;;8.03;4.87;;;15.50;99.90;16.00;97754.00;;;;5068922;28;20667;-71
2021/10/19 10:07:36;;;;;;;6.73;4.60;;;15.60;99.90;15.80;97755.00;;;;5080040;28;20196;-71
2021/10/19 10:10:25;;;;;;;5.30;4.20;;;15.60;99.90;15.80;97756.00;;;;5070932;28;20212;-72
2021/10/19 10:13:16;;;;;;;6.70;5.03;;;15.60;99.90;16.60;97741.00;;;;5074714;28;20206;-71
2021/10/19 10:16:10;;;;;;;5.50;4.73;;;15.80;99.90;16.90;97751.00;;;;5076970;28;20211;-73
2021/10/19 10:18:59;;;;;;;6.37;4.80;;;16.10;99.90;17.70;97751.00;;;;5082044;28;20203;-72
2021/10/19 10:21:53;;;;;;;4.90;4.37;;;16.60;99.90;17.70;97738.00;;;;5078596;28;20219;-72
2021/10/19 10:24:44;;;;;;;4.70;4.20;;;17.00;99.90;18.30;97741.00;;;;5087729;28;20214;-71
2021/10/19 10:27:34;;;;;;;4.57;4.17;;;17.40;99.90;18.00;97742.00;;;;5067962;28;20238;-72
2021/10/19 10:30:25;;;;;;;4.53;4.13;;;17.60;99.90;18.30;97739.00;;;;5081872;28;20203;-72
2021/10/19 10:33:14;;;;;;;7.17;4.10;;;17.80;99.90;19.20;97736.00;;;;5073962;28;20222;-73
2021/10/19 10:36:06;;;;;;;5.93;4.70;;;18.20;99.90;19.30;97740.00;;;;5080622;28;20203;-73
2021/10/19 10:38:57;;;;;;;4.60;4.00;;;18.50;99.00;19.40;97742.00;;;;5071814;28;20199;-72
2021/10/19 10:41:48;;;;;;;4.03;3.63;;;18.90;97.40;19.30;97708.00;;;;5077178;28;20228;-72
2021/10/19 10:44:40;;;;;;;4.67;3.77;;;18.90;96.30;19.50;97708.00;;;;5072829;28;20334;-72
2021/10/19 10:47:29;;;;;;;6.73;4.03;;;19.10;94.10;20.50;97707.00;;;;5076401;28;20225;-74
2021/10/19 10:50:18;;;;;;;4.63;3.97;;;19.40;95.10;21.10;97702.00;;;;5075994;28;20563;-73
2021/10/19 10:53:09;;;;;;;4.60;3.33;;;19.90;94.30;21.30;97709.00;;;;5072147;28;20240;-73
2021/10/19 10:55:58;;;;;;;4.60;3.60;;;20.40;92.90;21.40;97701.00;;;;5078638;28;20201;-74
2021/10/19 10:58:51;;;;;;;5.87;3.63;;;20.70;90.90;21.50;97701.00;;;;5079274;28;20212;-72
2021/10/19 11:01:40;;;;;;;4.87;4.10;;;20.90;87.80;21.50;97709.00;;;;5079861;28;20729;-74
2021/10/19 11:04:28;;;;;;;4.40;3.47;;;21.20;84.90;20.50;97696.00;;;;5067554;28;20289;-72
2021/10/19 11:07:28;;;;;;;3.70;3.40;;;21.30;79.90;21.50;97696.00;;;;5079118;28;20200;-74
2021/10/19 11:10:18;;;;;;;3.80;3.10;;;21.40;77.30;21.70;97690.00;;;;5071805;28;20550;-72
2021/10/19 11:13:07;;;;;;;3.67;3.10;;;21.60;74.60;21.60;97679.00;;;;5071400;28;20235;-72
2021/10/19 11:15:57;;;;;;;4.87;3.67;;;21.90;73.20;22.20;97687.00;;;;5077148;28;20964;-71
2021/10/19 11:18:51;;;;;;;3.43;3.13;;;22.00;73.10;22.10;97684.00;;;;5090703;28;20228;-74
2021/10/19 11:21:40;;;;;;;3.30;2.67;;;22.10;70.30;22.80;97679.00;;;;5086733;28;20243;-74
2021/10/19 11:24:32;;;;;;;4.97;3.23;;;22.20;70.90;22.50;97674.00;;;;5086334;28;20193;-72
2021/10/19 11:27:21;;;;;;;5.07;3.10;;;22.60;69.30;22.20;97691.00;;;;5081602;28;20588;-72
2021/10/19 11:30:13;;;;;;;8.43;4.33;;;22.80;65.90;22.10;97683.00;;;;5079093;28;20683;-72
2021/10/19 11:33:06;;;;;;;7.50;5.10;;;22.90;66.50;22.30;97689.00;;;;5073785;28;20227;-71
2021/10/19 11:35:55;;;;;;;5.33;4.27;;;23.00;64.20;22.70;97678.00;;;;5086394;28;20202;-73
2021/10/19 11:38:48;;;;;;;7.93;4.10;;;23.00;63.40;23.50;97665.00;;;;5071785;28;20209;-72
2021/10/19 11:41:37;;;;;;;7.13;4.10;;;23.10;65.70;24.20;97677.00;;;;5083314;28;20766;-72
2021/10/19 11:44:30;;;;;;;9.70;4.60;;;23.30;67.20;24.30;97663.00;;;;5072082;28;20682;-73
2021/10/19 11:47:19;;;;;;;13.35;5.45;;;23.60;64.70;24.90;97669.00;;;;5074217;28;20586;-73
2021/10/19 11:50:10;;;;;;;19.98;6.65;;;24.00;64.00;25.00;97674.00;;;;5078057;28;20564;-72
2021/10/19 11:53:03;;;;;;;11.38;6.43;;;24.40;62.90;24.90;97680.00;;;;5075683;28;20722;-73
2021/10/19 11:55:55;;;;;;;11.75;5.53;;;24.60;60.90;24.70;97674.00;;;;5077233;28;20312;-72
2021/10/19 11:58:53;;;;;;;12.60;5.72;;;24.80;59.70;24.80;97671.00;;;;5090593;28;20742;-74
2021/10/19 12:01:43;;;;;;;7.35;5.32;;;24.80;59.00;24.70;97673.00;;;;5090232;28;20216;-71
2021/10/19 12:04:32;;;;;;;11.32;4.70;;;24.80;59.40;25.00;97679.00;;;;5067254;28;20197;-73
2021/10/19 12:07:29;;;;;;;8.32;4.80;;;24.70;60.00;24.80;97674.00;;;;5080964;28;20209;-73
2021/10/19 12:10:22;;;;;;;7.57;5.18;;;24.80;59.00;24.50;97665.00;;;;5070420;28;20199;-71
2021/10/19 12:13:12;;;;;;;9.98;4.97;;;24.80;58.60;24.30;97658.00;;;;5091707;28;20227;-73
2021/10/19 12:16:01;;;;;;;9.25;5.47;;;24.60;57.00;23.70;97663.00;;;;5077359;28;20216;-73
2021/10/19 12:18:49;;;;;;;10.77;5.78;;;24.50;57.80;22.50;97643.00;;;;5078232;28;20208;-71
2021/10/19 12:21:49;;;;;;;16.90;6.40;;;24.40;57.30;22.50;97642.00;;;;5071884;28;20232;-71
2021/10/19 12:24:42;;;;;;;10.38;6.60;;;24.00;58.30;20.50;97633.00;;;;5073742;28;20552;-70
2021/10/19 12:27:31;;;;;;;13.37;6.47;;;23.10;58.70;21.30;97636.00;;;;5064382;28;20202;-70
2021/10/19 12:30:21;;;;;;;12.93;5.60;;;22.70;60.40;22.00;97635.00;;;;5066206;28;21086;-69
2021/10/19 12:33:16;;;;;;;13.30;6.77;;;22.70;60.20;21.60;97633.00;;;;5081778;28;20629;-71
2021/10/19 12:36:09;;;;;;;14.00;6.23;;;22.60;59.70;21.80;97636.00;;;;5064549;28;20210;-72
2021/10/19 12:39:00;;;;;;;11.80;6.13;;;22.80;59.80;21.60;97621.00;;;;5069960;28;20197;-70
2021/10/19 12:41:54;;;;;;;14.47;6.07;;;22.80;59.70;23.20;97635.00;;;;5074409;28;20224;-71